Time,TemperatureF,DewpointF,PressureIn,WindDirection,WindDirectionDegrees,WindSpeedMPH,WindSpeedGustMPH,Humidity,HourlyPrecipIn,Conditions,Clouds,dailyrainin,SolarRadiationWatts/m^2,SoftwareType,DateUTC
2013-07-07 00:01:00,76.7,68.6,29.82,SE,136,3.5,3.5,76,0.00,,,0.00,0.0,WeatherDisplay:10.37,2013-07-07 05:01:00,
2013-07-07 00:06:00,76.7,68.6,29.82,SSE,153,6.9,6.9,76,0.00,,,0.00,0.0,WeatherDisplay:10.37,2013-07-07 05:06:00,
2013-07-07 00:11:00,76.7,68.6,29.81,SSE,150,6.9,6.9,76,0.00,,,0.00,0.0,WeatherDisplay:10.37,2013-07-07 05:11:00,
2013-07-07 00:16:00,76.6,68.5,29.81,SE,139,3.5,3.5,76,0.00,,,0.00,0.0,WeatherDisplay:10.37,2013-07-07 05:16:00,
2013-07-07 00:21:00,76.5,68.4,29.81,SE,144,3.5,3.5,76,0.00,,,0.00,0.0,WeatherDisplay:10.37,2013-07-07 05:21:00,
2013-07-07 00:26:00,76.4,68.3,29.81,South,173,5.8,5.8,76,0.00,,,0.00,0.0,WeatherDisplay:10.37,2013-07-07 05:26:00,
2013-07-07 00:31:00,76.3,68.6,29.81,SSE,150,3.5,3.5,77,0.00,,,0.00,0.0,WeatherDisplay:10.37,2013-07-07 05:31:00,
2013-07-07 00:36:00,76.3,68.6,29.81,SE,140,6.0,6.0,77,0.00,,,0.00,0.0,WeatherDisplay:10.37,2013-07-07 05:36:00,
2013-07-07 00:41:00,76.3,68.6,29.80,SSE,151,0.0,0.0,77,0.00,,,0.00,0.0,WeatherDisplay:10.37,2013-07-07 05:41:00,
2013-07-07 00:46:00,76.2,68.5,29.80,SE,144,5.0,5.0,77,0.00,,,0.00,0.0,WeatherDisplay:10.37,2013-07-07 05:46:00,
2013-07-07 00:51:00,76.2,68.5,29.80,SSE,148,4.6,4.6,77,0.00,,,0.00,0.0,WeatherDisplay:10.37,2013-07-07 05:51:00,
2013-07-07 00:56:00,76.1,68.4,29.80,SSE,150,4.6,4.6,77,0.00,,,0.00,0.0,WeatherDisplay:10.37,2013-07-07 05:56:00,
2013-07-07 01:01:00,76.0,68.3,29.80,SSE,159,4.0,4.0,77,0.00,,,0.00,0.0,WeatherDisplay:10.37,2013-07-07 06:01:00,
2013-07-07 01:06:00,76.0,68.3,29.80,SSE,164,5.8,5.8,77,0.00,,,0.00,0.0,WeatherDisplay:10.37,2013-07-07 06:06:00,
2013-07-07 01:11:00,75.9,68.2,29.80,SSE,156,6.9,6.9,77,0.00,,,0.00,0.0,WeatherDisplay:10.37,2013-07-07 06:11:00,
2013-07-07 01:16:00,75.9,68.2,29.80,SSE,160,3.5,0.0,77,0.00,,,0.00,0.0,WeatherDisplay:10.37,2013-07-07 06:16:00,
2013-07-07 01:21:00,75.8,68.4,29.80,South,171,5.0,5.0,78,0.00,,,0.00,0.0,WeatherDisplay:10.37,2013-07-07 06:21:00,
2013-07-07 01:26:00,75.8,68.4,29.80,SE,146,5.8,5.8,78,0.00,,,0.00,0.0,WeatherDisplay:10.37,2013-07-07 06:26:00,
2013-07-07 01:31:00,75.7,68.4,29.80,SSE,163,0.0,0.0,78,0.00,,,0.00,0.0,WeatherDisplay:10.37,2013-07-07 06:31:00,
2013-07-07 01:36:00,75.6,68.3,29.80,SSE,154,5.0,5.0,78,0.00,,,0.00,0.0,WeatherDisplay:10.37,2013-07-07 06:36:00,
2013-07-07 01:41:00,75.5,68.2,29.80,South,182,8.1,8.1,78,0.00,,,0.00,0.0,WeatherDisplay:10.37,2013-07-07 06:41:00,
2013-07-07 01:46:00,75.5,68.2,29.80,SSE,159,3.5,3.5,78,0.00,,,0.00,0.0,WeatherDisplay:10.37,2013-07-07 06:46:00,
2013-07-07 01:51:00,75.4,68.1,29.80,SSE,148,6.0,6.0,78,0.00,,,0.00,0.0,WeatherDisplay:10.37,2013-07-07 06:51:00,
2013-07-07 01:56:00,75.3,68.0,29.80,SSE,165,6.9,6.9,78,0.00,,,0.00,0.0,WeatherDisplay:10.37,2013-07-07 06:56:00,
2013-07-07 02:01:00,75.3,68.0,29.80,SSE,157,10.4,10.4,78,0.00,,,0.00,0.0,WeatherDisplay:10.37,2013-07-07 07:01:00,
2013-07-07 02:06:00,75.2,67.9,29.80,SSE,157,10.4,10.4,78,0.00,,,0.00,0.0,WeatherDisplay:10.37,2013-07-07 07:06:00,
2013-07-07 02:11:00,75.1,68.1,29.80,SSE,150,4.6,4.6,79,0.00,,,0.00,0.0,WeatherDisplay:10.37,2013-07-07 07:11:00,
2013-07-07 02:16:00,74.9,67.9,29.80,SSE,166,4.6,4.6,79,0.00,,,0.00,0.0,WeatherDisplay:10.37,2013-07-07 07:16:00,
2013-07-07 02:21:00,74.8,67.8,29.80,SSE,159,6.9,6.9,79,0.00,,,0.00,0.0,WeatherDisplay:10.37,2013-07-07 07:21:00,
2013-07-07 02:26:00,74.6,68.0,29.80,South,171,5.8,5.8,80,0.00,,,0.00,0.0,WeatherDisplay:10.37,2013-07-07 07:26:00,
2013-07-07 02:32:00,74.5,67.9,29.80,South,170,3.5,3.5,80,0.00,,,0.00,0.0,WeatherDisplay:10.37,2013-07-07 07:32:00,
2013-07-07 02:37:00,74.3,67.7,29.80,SSE,155,6.9,6.9,80,0.00,,,0.00,0.0,WeatherDisplay:10.37,2013-07-07 07:37:00,
2013-07-07 02:42:00,74.1,67.9,29.80,South,183,4.6,4.6,81,0.00,,,0.00,0.0,WeatherDisplay:10.37,2013-07-07 07:42:00,
2013-07-07 02:47:00,74.0,67.8,29.80,SSE,153,4.6,4.6,81,0.00,,,0.00,0.0,WeatherDisplay:10.37,2013-07-07 07:47:00,
2013-07-07 02:52:00,73.8,68.0,29.80,SSE,163,4.6,4.6,82,0.00,,,0.00,0.0,WeatherDisplay:10.37,2013-07-07 07:52:00,
2013-07-07 02:57:00,73.7,67.9,29.80,SSE,159,3.5,3.5,82,0.00,,,0.00,0.0,WeatherDisplay:10.37,2013-07-07 07:57:00,
2013-07-07 03:02:00,73.5,67.7,29.80,SSE,167,3.5,3.5,82,0.00,,,0.00,0.0,WeatherDisplay:10.37,2013-07-07 08:02:00,
2013-07-07 03:07:00,73.3,67.5,29.80,SSE,159,0.0,0.0,82,0.00,,,0.00,0.0,WeatherDisplay:10.37,2013-07-07 08:07:00,
2013-07-07 03:12:00,73.2,67.7,29.80,SSE,163,5.8,5.8,83,0.00,,,0.00,0.0,WeatherDisplay:10.37,2013-07-07 08:12:00,
2013-07-07 03:17:00,73.1,67.6,29.80,SSE,165,0.0,0.0,83,0.00,,,0.00,0.0,WeatherDisplay:10.37,2013-07-07 08:17:00,
2013-07-07 03:22:00,73.0,67.5,29.80,SSE,157,3.5,3.5,83,0.00,,,0.00,0.0,WeatherDisplay:10.37,2013-07-07 08:22:00,
2013-07-07 03:27:00,72.9,67.4,29.80,SSE,156,0.0,0.0,83,0.00,,,0.00,0.0,WeatherDisplay:10.37,2013-07-07 08:27:00,
2013-07-07 03:32:00,72.8,67.3,29.80,SSE,155,3.5,3.5,83,0.00,,,0.00,0.0,WeatherDisplay:10.37,2013-07-07 08:32:00,
2013-07-07 03:37:00,72.6,67.1,29.80,SSE,159,2.3,2.3,83,0.00,,,0.00,0.0,WeatherDisplay:10.37,2013-07-07 08:37:00,
2013-07-07 03:42:00,72.5,67.4,29.80,SSE,152,5.8,5.8,84,0.00,,,0.00,0.0,WeatherDisplay:10.37,2013-07-07 08:42:00,
2013-07-07 03:47:00,72.4,67.3,29.80,SSE,149,4.6,4.6,84,0.00,,,0.00,0.0,WeatherDisplay:10.37,2013-07-07 08:47:00,
2013-07-07 03:52:00,72.3,67.2,29.80,SE,146,0.0,0.0,84,0.00,,,0.00,0.0,WeatherDisplay:10.37,2013-07-07 08:52:00,
2013-07-07 03:57:00,72.2,67.1,29.80,SSE,151,0.0,0.0,84,0.00,,,0.00,0.0,WeatherDisplay:10.37,2013-07-07 08:57:00,
2013-07-07 04:02:00,72.2,67.1,29.80,SSE,151,0.0,0.0,84,0.00,,,0.00,0.0,WeatherDisplay:10.37,2013-07-07 09:02:00,
2013-07-07 04:07:00,72.1,67.0,29.80,SSE,151,0.0,0.0,84,0.00,,,0.00,0.0,WeatherDisplay:10.37,2013-07-07 09:07:00,
2013-07-07 04:12:00,72.0,66.9,29.80,SSE,150,3.0,3.0,84,0.00,,,0.00,0.0,WeatherDisplay:10.37,2013-07-07 09:12:00,
2013-07-07 04:17:00,71.8,67.0,29.80,SSE,153,0.0,0.0,85,0.00,,,0.00,0.0,WeatherDisplay:10.37,2013-07-07 09:17:00,
2013-07-07 04:22:00,71.7,66.9,29.80,SSE,154,0.0,0.0,85,0.00,,,0.00,0.0,WeatherDisplay:10.37,2013-07-07 09:22:00,
2013-07-07 04:27:00,71.6,66.8,29.80,SSE,154,0.0,0.0,85,0.00,,,0.00,0.0,WeatherDisplay:10.37,2013-07-07 09:27:00,
2013-07-07 04:32:00,71.4,66.7,29.80,SSE,154,0.0,0.0,85,0.00,,,0.00,0.0,WeatherDisplay:10.37,2013-07-07 09:32:00,
2013-07-07 04:37:00,71.3,66.9,29.80,SSE,154,0.0,0.0,86,0.00,,,0.00,0.0,WeatherDisplay:10.37,2013-07-07 09:37:00,
2013-07-07 04:42:00,71.2,66.8,29.80,SSE,154,0.0,0.0,86,0.00,,,0.00,0.0,WeatherDisplay:10.37,2013-07-07 09:42:00,
2013-07-07 04:47:00,71.1,66.7,29.80,SSE,154,0.0,0.0,86,0.00,,,0.00,0.0,WeatherDisplay:10.37,2013-07-07 09:47:00,
2013-07-07 04:52:00,71.0,66.6,29.80,SSE,154,0.0,0.0,86,0.00,,,0.00,0.0,WeatherDisplay:10.37,2013-07-07 09:52:00,
2013-07-07 04:57:00,70.8,66.7,29.81,SSE,154,0.0,0.0,87,0.00,,,0.00,0.0,WeatherDisplay:10.37,2013-07-07 09:57:00,
2013-07-07 05:02:00,70.7,66.6,29.81,SSE,154,0.0,0.0,87,0.00,,,0.00,0.0,WeatherDisplay:10.37,2013-07-07 10:02:00,
2013-07-07 05:07:00,70.6,66.5,29.81,SSE,154,0.0,0.0,87,0.00,,,0.00,0.0,WeatherDisplay:10.37,2013-07-07 10:07:00,
2013-07-07 05:12:00,70.5,66.4,29.81,SSE,154,0.0,0.0,87,0.00,,,0.00,0.0,WeatherDisplay:10.37,2013-07-07 10:12:00,
2013-07-07 05:17:00,70.4,66.3,29.81,SSE,154,0.0,0.0,87,0.00,,,0.00,0.0,WeatherDisplay:10.37,2013-07-07 10:17:00,
2013-07-07 05:22:00,70.4,66.3,29.81,SSE,153,1.1,0.0,87,0.00,,,0.00,0.0,WeatherDisplay:10.37,2013-07-07 10:22:00,
2013-07-07 05:27:00,70.3,66.6,29.81,SSE,153,3.5,3.5,88,0.00,,,0.00,0.0,WeatherDisplay:10.37,2013-07-07 10:27:00,
2013-07-07 05:32:00,70.2,66.5,29.81,SSE,153,2.3,0.0,88,0.00,,,0.00,0.0,WeatherDisplay:10.37,2013-07-07 10:32:00,
2013-07-07 05:37:00,70.2,66.5,29.81,SSE,153,0.0,0.0,88,0.00,,,0.00,0.0,WeatherDisplay:10.37,2013-07-07 10:37:00,
2013-07-07 05:42:00,70.2,66.5,29.81,SSE,150,3.5,3.5,88,0.00,,,0.00,5.0,WeatherDisplay:10.37,2013-07-07 10:42:00,
2013-07-07 05:47:00,70.1,66.4,29.81,SSE,148,4.0,4.0,88,0.00,BKN,,0.00,9.0,WeatherDisplay:10.37,2013-07-07 10:47:00,
2013-07-07 05:52:00,70.1,66.4,29.81,SSE,149,4.6,4.6,88,0.00,BKN,,0.00,11.0,WeatherDisplay:10.37,2013-07-07 10:52:00,
2013-07-07 05:57:00,70.1,66.4,29.81,SSE,150,4.6,4.6,88,0.00,BKN,,0.00,16.0,WeatherDisplay:10.37,2013-07-07 10:57:00,
2013-07-07 06:02:00,70.1,66.4,29.81,SE,142,6.9,6.9,88,0.00,BKN,,0.00,23.0,WeatherDisplay:10.37,2013-07-07 11:02:00,
2013-07-07 06:07:00,70.1,66.4,29.81,SE,139,6.0,6.0,88,0.00,BKN,,0.00,21.0,WeatherDisplay:10.37,2013-07-07 11:07:00,
2013-07-07 06:12:00,70.2,66.5,29.81,SSE,147,5.8,5.8,88,0.00,BKN,,0.00,25.0,WeatherDisplay:10.37,2013-07-07 11:12:00,
2013-07-07 06:17:00,70.2,66.5,29.81,SSE,151,5.8,5.8,88,0.00,BKN,,0.00,28.0,WeatherDisplay:10.37,2013-07-07 11:17:00,
2013-07-07 06:22:00,70.3,66.9,29.81,SSE,153,5.0,5.0,89,0.00,BKN,,0.00,30.0,WeatherDisplay:10.37,2013-07-07 11:22:00,
2013-07-07 06:27:00,70.3,66.6,29.81,SE,145,8.0,8.0,88,0.00,BKN,,0.00,28.0,WeatherDisplay:10.37,2013-07-07 11:27:00,
2013-07-07 06:32:00,70.4,66.7,29.81,SE,146,6.9,6.9,88,0.00,BKN,,0.00,32.0,WeatherDisplay:10.37,2013-07-07 11:32:00,
2013-07-07 06:37:00,70.4,66.7,29.81,SSE,150,3.0,3.0,88,0.00,BKN,,0.00,32.0,WeatherDisplay:10.37,2013-07-07 11:37:00,
2013-07-07 06:42:00,70.5,66.8,29.81,SSE,149,9.2,9.2,88,0.00,BKN,,0.00,35.0,WeatherDisplay:10.37,2013-07-07 11:42:00,
2013-07-07 06:48:00,70.6,66.9,29.81,SSE,154,5.8,5.8,88,0.00,BKN,,0.00,40.0,WeatherDisplay:10.37,2013-07-07 11:48:00,
2013-07-07 06:53:00,70.6,66.9,29.81,SE,144,9.2,9.2,88,0.00,BKN,,0.00,44.0,WeatherDisplay:10.37,2013-07-07 11:53:00,
2013-07-07 06:58:00,70.7,67.0,29.81,SSE,154,4.6,4.6,88,0.00,BKN,,0.00,53.0,WeatherDisplay:10.37,2013-07-07 11:58:00,
2013-07-07 07:03:00,70.8,67.1,29.81,SSE,157,6.9,6.9,88,0.00,BKN,,0.00,62.0,WeatherDisplay:10.37,2013-07-07 12:03:00,
2013-07-07 07:08:00,70.8,66.7,29.81,SSE,150,5.0,5.0,87,0.00,BKN,,0.00,76.0,WeatherDisplay:10.37,2013-07-07 12:08:00,
2013-07-07 07:13:00,71.0,66.9,29.81,SSE,151,5.8,5.8,87,0.00,BKN,,0.00,83.0,WeatherDisplay:10.37,2013-07-07 12:13:00,
2013-07-07 07:18:00,71.2,67.1,29.81,SSE,154,6.9,6.9,87,0.00,BKN,,0.00,90.0,WeatherDisplay:10.37,2013-07-07 12:18:00,
2013-07-07 07:23:00,71.3,66.9,29.81,South,178,5.8,5.8,86,0.00,BKN,,0.00,95.0,WeatherDisplay:10.37,2013-07-07 12:23:00,
2013-07-07 07:28:00,71.6,67.2,29.82,SSE,159,4.6,4.6,86,0.00,BKN,,0.00,90.0,WeatherDisplay:10.37,2013-07-07 12:28:00,
2013-07-07 07:33:00,71.9,67.1,29.82,SE,146,5.8,5.8,85,0.00,BKN,,0.00,104.0,WeatherDisplay:10.37,2013-07-07 12:33:00,
2013-07-07 07:38:00,72.1,67.3,29.82,SSE,157,5.8,5.8,85,0.00,BKN,,0.00,113.0,WeatherDisplay:10.37,2013-07-07 12:38:00,
2013-07-07 07:43:00,72.3,67.2,29.82,SSE,153,4.6,4.6,84,0.00,BKN,,0.00,146.0,WeatherDisplay:10.37,2013-07-07 12:43:00,
2013-07-07 07:48:00,72.6,67.5,29.82,SSE,166,4.6,4.6,84,0.00,BKN,,0.00,172.0,WeatherDisplay:10.37,2013-07-07 12:48:00,
2013-07-07 07:53:00,72.9,67.4,29.82,SSE,162,6.9,6.9,83,0.00,SCT,,0.00,227.0,WeatherDisplay:10.37,2013-07-07 12:53:00,
2013-07-07 07:58:00,73.2,67.7,29.82,SSE,157,6.9,6.9,83,0.00,SCT,,0.00,197.0,WeatherDisplay:10.37,2013-07-07 12:58:00,
2013-07-07 08:03:00,73.5,67.7,29.82,South,172,9.0,9.0,82,0.00,SCT,,0.00,162.0,WeatherDisplay:10.37,2013-07-07 13:03:00,
2013-07-07 08:08:00,73.7,67.5,29.82,SSE,161,6.9,6.9,81,0.00,SCT,,0.00,334.0,WeatherDisplay:10.37,2013-07-07 13:08:00,
2013-07-07 08:13:00,74.0,67.8,29.82,SE,141,10.4,10.4,81,0.00,SCT,,0.00,385.0,WeatherDisplay:10.37,2013-07-07 13:13:00,
2013-07-07 08:18:00,74.5,67.9,29.82,SSE,153,8.1,8.1,80,0.00,CLR,,0.00,446.0,WeatherDisplay:10.37,2013-07-07 13:18:00,
2013-07-07 08:23:00,74.9,67.9,29.82,SSE,160,6.9,6.9,79,0.00,CLR,,0.00,274.0,WeatherDisplay:10.37,2013-07-07 13:23:00,
2013-07-07 08:28:00,75.3,68.3,29.82,SSW,192,10.0,10.0,79,0.00,CLR,,0.00,258.0,WeatherDisplay:10.37,2013-07-07 13:28:00,
2013-07-07 08:33:00,75.5,68.2,29.82,SSE,163,4.0,4.0,78,0.00,SCT,,0.00,264.0,WeatherDisplay:10.37,2013-07-07 13:33:00,
2013-07-07 08:38:00,75.7,68.0,29.82,SE,140,5.0,5.0,77,0.00,SCT,,0.00,374.0,WeatherDisplay:10.37,2013-07-07 13:38:00,
2013-07-07 08:43:00,76.0,68.3,29.81,SE,142,3.5,3.5,77,0.00,SCT,,0.00,193.0,WeatherDisplay:10.37,2013-07-07 13:43:00,
2013-07-07 08:48:00,76.3,68.6,29.81,South,173,9.2,9.2,77,0.00,FEW,,0.00,446.0,WeatherDisplay:10.37,2013-07-07 13:48:00,
2013-07-07 08:53:00,76.6,68.8,29.81,SE,136,9.2,9.2,77,0.00,FEW,,0.00,443.0,WeatherDisplay:10.37,2013-07-07 13:53:00,
2013-07-07 08:58:00,76.9,68.8,29.81,SE,143,4.6,4.6,76,0.00,CLR,,0.00,483.0,WeatherDisplay:10.37,2013-07-07 13:58:00,
2013-07-07 09:03:00,77.2,68.7,29.81,SSE,148,8.1,8.1,75,0.00,CLR,,0.00,496.0,WeatherDisplay:10.37,2013-07-07 14:03:00,
2013-07-07 09:08:00,77.5,69.3,29.81,SSE,148,5.8,5.8,76,0.00,CLR,,0.00,552.0,WeatherDisplay:10.37,2013-07-07 14:08:00,
2013-07-07 09:13:00,77.6,68.7,29.81,SSE,152,11.5,11.5,74,0.00,CLR,,0.00,577.0,WeatherDisplay:10.37,2013-07-07 14:13:00,
2013-07-07 09:18:00,77.9,68.5,29.81,SSE,154,10.4,10.4,73,0.00,CLR,,0.00,605.0,WeatherDisplay:10.37,2013-07-07 14:18:00,
2013-07-07 09:23:00,78.2,68.8,29.81,SSE,155,6.9,6.9,73,0.00,CLR,,0.00,661.0,WeatherDisplay:10.37,2013-07-07 14:23:00,
2013-07-07 09:28:00,78.2,68.4,29.81,SSE,164,6.9,6.9,72,0.00,FEW,,0.00,336.0,WeatherDisplay:10.37,2013-07-07 14:28:00,
2013-07-07 09:33:00,78.3,68.5,29.81,SE,146,6.9,6.9,72,0.00,SCT,,0.00,250.0,WeatherDisplay:10.37,2013-07-07 14:33:00,
2013-07-07 09:38:00,78.3,68.1,29.81,South,182,4.6,4.6,71,0.00,BKN,,0.00,346.0,WeatherDisplay:10.37,2013-07-07 14:38:00,
2013-07-07 09:43:00,78.7,68.9,29.81,SSE,160,4.6,4.6,72,0.00,SCT,,0.00,596.0,WeatherDisplay:10.37,2013-07-07 14:43:00,
2013-07-07 09:48:00,79.1,68.5,29.81,SE,143,10.4,10.4,70,0.00,FEW,,0.00,617.0,WeatherDisplay:10.37,2013-07-07 14:48:00,
2013-07-07 09:53:00,79.4,68.3,29.81,SSE,147,9.2,9.2,69,0.00,CLR,,0.00,622.0,WeatherDisplay:10.37,2013-07-07 14:53:00,
2013-07-07 09:58:00,79.6,69.0,29.81,South,188,7.0,7.0,70,0.00,CLR,,0.00,628.0,WeatherDisplay:10.37,2013-07-07 14:58:00,
2013-07-07 10:03:00,79.9,68.4,29.81,SSW,194,12.7,12.7,68,0.00,CLR,,0.00,645.0,WeatherDisplay:10.37,2013-07-07 15:03:00,
2013-07-07 10:08:00,80.1,69.0,29.81,SSE,163,8.1,8.1,69,0.00,FEW,,0.00,647.0,WeatherDisplay:10.37,2013-07-07 15:08:00,
2013-07-07 10:13:00,80.3,68.3,29.81,SSE,152,13.8,13.8,67,0.00,FEW,,0.00,661.0,WeatherDisplay:10.37,2013-07-07 15:13:00,
2013-07-07 10:18:00,80.5,69.4,29.81,South,176,6.9,6.9,69,0.00,FEW,,0.00,675.0,WeatherDisplay:10.37,2013-07-07 15:18:00,
2013-07-07 10:23:00,80.7,68.7,29.81,South,186,11.5,11.5,67,0.00,FEW,,0.00,687.0,WeatherDisplay:10.37,2013-07-07 15:23:00,
2013-07-07 10:28:00,80.7,69.2,29.81,South,181,6.0,6.0,68,0.00,FEW,,0.00,696.0,WeatherDisplay:10.37,2013-07-07 15:28:00,
2013-07-07 10:33:00,80.9,69.3,29.81,SSW,200,6.9,6.9,68,0.00,FEW,,0.00,701.0,WeatherDisplay:10.37,2013-07-07 15:33:00,
2013-07-07 10:38:00,81.3,69.7,29.81,SSE,156,4.6,4.6,68,0.00,FEW,,0.00,712.0,WeatherDisplay:10.37,2013-07-07 15:38:00,
2013-07-07 10:43:00,81.6,69.6,29.81,SW,217,10.4,10.4,67,0.00,FEW,,0.00,722.0,WeatherDisplay:10.37,2013-07-07 15:43:00,
2013-07-07 10:48:00,82.0,70.4,29.81,South,169,10.4,10.4,68,0.00,FEW,,0.00,735.0,WeatherDisplay:10.37,2013-07-07 15:48:00,
2013-07-07 10:53:00,82.4,70.3,29.81,SSE,166,3.5,3.5,67,0.00,FEW,,0.00,742.0,WeatherDisplay:10.37,2013-07-07 15:53:00,
2013-07-07 10:58:00,82.9,70.4,29.80,SSE,163,3.5,3.5,66,0.00,FEW,,0.00,752.0,WeatherDisplay:10.37,2013-07-07 15:58:00,
2013-07-07 11:03:00,83.2,69.3,29.80,South,180,11.5,11.5,63,0.00,FEW,,0.00,761.0,WeatherDisplay:10.37,2013-07-07 16:03:00,
2013-07-07 11:08:00,83.4,69.5,29.80,South,176,6.9,6.9,63,0.00,FEW,,0.00,766.0,WeatherDisplay:10.37,2013-07-07 16:08:00,
2013-07-07 11:13:00,83.7,69.3,29.80,SSW,198,11.5,11.5,62,0.00,FEW,,0.00,775.0,WeatherDisplay:10.37,2013-07-07 16:13:00,
2013-07-07 11:18:00,84.0,69.6,29.80,SSE,160,9.2,9.2,62,0.00,FEW,,0.00,782.0,WeatherDisplay:10.37,2013-07-07 16:18:00,
2013-07-07 11:23:00,84.1,69.7,29.80,WSW,252,9.2,9.2,62,0.00,FEW,,0.00,788.0,WeatherDisplay:10.37,2013-07-07 16:23:00,
2013-07-07 11:28:00,84.4,68.5,29.80,SW,236,10.4,10.4,59,0.00,FEW,,0.00,791.0,WeatherDisplay:10.37,2013-07-07 16:28:00,
2013-07-07 11:33:00,84.5,69.1,29.80,South,190,7.0,7.1,60,0.00,FEW,,0.00,800.0,WeatherDisplay:10.37,2013-07-07 16:33:00,
2013-07-07 11:39:00,84.7,68.8,29.80,SSW,205,15.0,15.0,59,0.00,FEW,,0.00,807.0,WeatherDisplay:10.37,2013-07-07 16:39:00,
2013-07-07 11:44:00,84.8,68.9,29.79,South,188,10.4,10.4,59,0.00,FEW,,0.00,810.0,WeatherDisplay:10.37,2013-07-07 16:44:00,
2013-07-07 11:49:00,85.1,68.7,29.79,SSE,153,5.8,5.8,58,0.00,FEW,,0.00,814.0,WeatherDisplay:10.37,2013-07-07 16:49:00,
2013-07-07 11:54:00,85.2,68.8,29.79,SSE,165,6.0,6.0,58,0.00,FEW,,0.00,817.0,WeatherDisplay:10.37,2013-07-07 16:54:00,
2013-07-07 11:59:00,85.4,68.9,29.79,South,190,13.8,13.8,58,0.00,FEW,,0.00,828.0,WeatherDisplay:10.37,2013-07-07 16:59:00,
2013-07-07 12:04:00,85.5,69.5,29.79,SW,219,9.2,9.2,59,0.00,FEW,,0.00,831.0,WeatherDisplay:10.37,2013-07-07 17:04:00,
2013-07-07 12:09:00,85.9,70.4,29.79,SW,231,3.5,3.5,60,0.00,FEW,,0.00,833.0,WeatherDisplay:10.37,2013-07-07 17:09:00,
2013-07-07 12:14:00,86.1,70.1,29.79,South,190,5.8,5.8,59,0.00,FEW,,0.00,837.0,WeatherDisplay:10.37,2013-07-07 17:14:00,
2013-07-07 12:19:00,86.4,69.9,29.79,SW,224,11.5,11.5,58,0.00,FEW,,0.00,840.0,WeatherDisplay:10.37,2013-07-07 17:19:00,
2013-07-07 12:24:00,86.4,69.4,29.79,SSE,157,8.1,8.1,57,0.00,FEW,,0.00,860.0,WeatherDisplay:10.37,2013-07-07 17:24:00,
2013-07-07 12:29:00,86.6,69.0,29.79,WSW,252,9.2,9.2,56,0.00,FEW,,0.00,868.0,WeatherDisplay:10.37,2013-07-07 17:29:00,
2013-07-07 12:34:00,86.9,69.8,29.79,SSE,166,9.2,9.2,57,0.00,FEW,,0.00,872.0,WeatherDisplay:10.37,2013-07-07 17:34:00,
2013-07-07 12:39:00,87.1,72.0,29.79,SSW,192,5.8,5.8,61,0.00,FEW,,0.00,874.0,WeatherDisplay:10.37,2013-07-07 17:39:00,
2013-07-07 12:44:00,87.3,70.2,29.79,SSE,159,11.5,11.5,57,0.00,FEW,,0.00,863.0,WeatherDisplay:10.37,2013-07-07 17:44:00,
2013-07-07 12:49:00,87.2,70.1,29.79,SSE,155,17.3,17.3,57,0.00,FEW,,0.00,856.0,WeatherDisplay:10.37,2013-07-07 17:49:00,
2013-07-07 12:54:00,87.2,69.6,29.79,South,185,12.7,12.7,56,0.00,FEW,,0.00,853.0,WeatherDisplay:10.37,2013-07-07 17:54:00,
2013-07-07 12:59:00,87.4,71.3,29.79,South,187,9.2,9.2,59,0.00,FEW,,0.00,856.0,WeatherDisplay:10.37,2013-07-07 17:59:00,
2013-07-07 13:04:00,87.5,69.3,29.79,South,186,11.5,11.5,55,0.00,FEW,,0.00,854.0,WeatherDisplay:10.37,2013-07-07 18:04:00,
2013-07-07 13:09:00,87.6,70.0,29.79,SSE,154,5.8,5.8,56,0.00,FEW,,0.00,849.0,WeatherDisplay:10.37,2013-07-07 18:09:00,
2013-07-07 13:14:00,87.7,69.5,29.79,SSE,159,12.7,12.7,55,0.00,FEW,,0.00,858.0,WeatherDisplay:10.37,2013-07-07 18:14:00,
2013-07-07 13:19:00,87.7,69.5,29.79,South,189,11.5,11.5,55,0.00,FEW,,0.00,847.0,WeatherDisplay:10.37,2013-07-07 18:19:00,
2013-07-07 13:24:00,88.1,70.4,29.79,West,273,11.5,11.5,56,0.00,FEW,,0.00,853.0,WeatherDisplay:10.37,2013-07-07 18:24:00,
2013-07-07 13:29:00,88.4,70.2,29.79,SE,137,6.0,6.0,55,0.00,FEW,,0.00,847.0,WeatherDisplay:10.37,2013-07-07 18:29:00,
2013-07-07 13:34:00,88.6,69.3,29.79,SSE,154,4.6,4.6,53,0.00,FEW,,0.00,846.0,WeatherDisplay:10.37,2013-07-07 18:34:00,
2013-07-07 13:39:00,88.8,68.9,29.78,West,267,4.0,4.0,52,0.00,FEW,,0.00,844.0,WeatherDisplay:10.37,2013-07-07 18:39:00,
2013-07-07 13:44:00,89.1,69.7,29.78,SSE,165,5.8,5.8,53,0.00,FEW,,0.00,846.0,WeatherDisplay:10.37,2013-07-07 18:44:00,
2013-07-07 13:49:00,89.3,70.5,29.78,SW,221,0.0,1.6,54,0.00,FEW,,0.00,844.0,WeatherDisplay:10.37,2013-07-07 18:49:00,
2013-07-07 13:54:00,89.4,70.6,29.77,SSW,205,11.5,11.5,54,0.00,FEW,,0.00,840.0,WeatherDisplay:10.37,2013-07-07 18:54:00,
2013-07-07 13:59:00,89.6,69.6,29.77,SSW,210,9.2,9.2,52,0.00,FEW,,0.00,828.0,WeatherDisplay:10.37,2013-07-07 18:59:00,
2013-07-07 14:04:00,89.6,70.8,29.77,SSE,154,13.0,13.0,54,0.00,FEW,,0.00,824.0,WeatherDisplay:10.37,2013-07-07 19:04:00,
2013-07-07 14:09:00,89.5,69.5,29.77,South,173,12.7,12.7,52,0.00,FEW,,0.00,816.0,WeatherDisplay:10.37,2013-07-07 19:09:00,
2013-07-07 14:14:00,89.3,69.9,29.77,SSE,151,11.5,11.5,53,0.00,FEW,,0.00,824.0,WeatherDisplay:10.37,2013-07-07 19:14:00,
2013-07-07 14:19:00,89.4,70.6,29.77,South,182,10.4,10.4,54,0.00,FEW,,0.00,816.0,WeatherDisplay:10.37,2013-07-07 19:19:00,
2013-07-07 14:24:00,89.4,70.0,29.77,SSE,159,15.0,15.0,53,0.00,FEW,,0.00,805.0,WeatherDisplay:10.37,2013-07-07 19:24:00,
2013-07-07 14:29:00,89.3,69.9,29.77,SE,139,13.8,13.8,53,0.00,FEW,,0.00,807.0,WeatherDisplay:10.37,2013-07-07 19:29:00,
2013-07-07 14:34:00,89.3,70.5,29.77,South,172,9.2,9.2,54,0.00,FEW,,0.00,796.0,WeatherDisplay:10.37,2013-07-07 19:34:00,
2013-07-07 14:39:00,89.5,70.7,29.77,South,184,13.8,13.8,54,0.00,FEW,,0.00,791.0,WeatherDisplay:10.37,2013-07-07 19:39:00,
2013-07-07 14:44:00,89.6,70.2,29.77,SSW,213,9.2,9.2,53,0.00,FEW,,0.00,779.0,WeatherDisplay:10.37,2013-07-07 19:44:00,
2013-07-07 14:49:00,89.5,69.5,29.77,SE,146,21.9,21.9,52,0.00,FEW,,0.00,779.0,WeatherDisplay:10.37,2013-07-07 19:49:00,
2013-07-07 14:54:00,89.4,71.1,29.77,SSE,164,11.5,11.5,55,0.00,FEW,,0.00,775.0,WeatherDisplay:10.37,2013-07-07 19:54:00,
2013-07-07 14:59:00,89.5,70.7,29.77,SSE,153,12.7,12.7,54,0.00,FEW,,0.00,759.0,WeatherDisplay:10.37,2013-07-07 19:59:00,
2013-07-07 15:04:00,89.6,70.2,29.77,SSE,148,9.2,9.2,53,0.00,FEW,,0.00,752.0,WeatherDisplay:10.37,2013-07-07 20:04:00,
2013-07-07 15:09:00,89.8,71.5,29.77,SSE,153,11.0,11.0,55,0.00,FEW,,0.00,744.0,WeatherDisplay:10.37,2013-07-07 20:09:00,
2013-07-07 15:14:00,89.9,70.5,29.77,South,186,11.5,11.5,53,0.00,FEW,,0.00,744.0,WeatherDisplay:10.37,2013-07-07 20:14:00,
2013-07-07 15:19:00,90.1,70.7,29.77,South,171,11.5,11.5,53,0.00,FEW,,0.00,722.0,WeatherDisplay:10.37,2013-07-07 20:19:00,
2013-07-07 15:24:00,90.3,70.8,29.77,SE,129,10.4,10.4,53,0.00,FEW,,0.00,737.0,WeatherDisplay:10.37,2013-07-07 20:24:00,
2013-07-07 15:29:00,90.3,70.3,29.77,SE,144,16.1,16.1,52,0.00,FEW,,0.00,721.0,WeatherDisplay:10.37,2013-07-07 20:29:00,
2013-07-07 15:34:00,90.4,70.4,29.77,SSE,155,11.5,11.5,52,0.00,FEW,,0.00,729.0,WeatherDisplay:10.37,2013-07-07 20:34:00,
2013-07-07 15:39:00,90.7,70.7,29.77,SSE,158,11.5,11.5,52,0.00,FEW,,0.00,714.0,WeatherDisplay:10.37,2013-07-07 20:39:00,
2013-07-07 15:44:00,90.8,70.7,29.77,South,181,11.5,11.5,52,0.00,FEW,,0.00,724.0,WeatherDisplay:10.37,2013-07-07 20:44:00,
2013-07-07 15:49:00,90.7,70.1,29.77,SSE,163,15.0,15.0,51,0.00,FEW,,0.00,710.0,WeatherDisplay:10.37,2013-07-07 20:49:00,
2013-07-07 15:54:00,90.4,70.4,29.77,South,188,11.5,11.5,52,0.00,SCT,,0.00,329.0,WeatherDisplay:10.37,2013-07-07 20:54:00,
2013-07-07 15:59:00,90.3,70.3,29.77,SSE,163,12.7,12.7,52,0.00,BKN,,0.00,383.0,WeatherDisplay:10.37,2013-07-07 20:59:00,
2013-07-07 16:04:00,90.3,70.3,29.77,SW,216,10.4,10.4,52,0.00,BKN,,0.00,605.0,WeatherDisplay:10.37,2013-07-07 21:04:00,
2013-07-07 16:09:00,90.3,71.4,29.76,SSE,148,14.0,14.0,54,0.00,SCT,,0.00,359.0,WeatherDisplay:10.37,2013-07-07 21:09:00,
2013-07-07 16:14:00,90.0,70.0,29.76,SSE,161,13.0,13.0,52,0.00,SCT,,0.00,403.0,WeatherDisplay:10.37,2013-07-07 21:14:00,
2013-07-07 16:19:00,90.0,71.1,29.76,South,171,11.5,11.5,54,0.00,SCT,,0.00,367.0,WeatherDisplay:10.37,2013-07-07 21:19:00,
2013-07-07 16:24:00,89.9,70.5,29.77,SSW,211,11.5,11.5,53,0.00,SCT,,0.00,443.0,WeatherDisplay:10.37,2013-07-07 21:24:00,
2013-07-07 16:29:00,89.8,70.4,29.77,South,186,12.7,12.7,53,0.00,BKN,,0.00,325.0,WeatherDisplay:10.37,2013-07-07 21:29:00,
2013-07-07 16:34:00,89.6,70.2,29.77,SSE,158,12.7,12.7,53,0.00,SCT,,0.00,497.0,WeatherDisplay:10.37,2013-07-07 21:34:00,
2013-07-07 16:39:00,89.7,70.8,29.76,South,186,11.5,11.5,54,0.00,SCT,,0.00,617.0,WeatherDisplay:10.37,2013-07-07 21:39:00,
2013-07-07 16:44:00,89.9,71.6,29.76,SSE,160,10.0,10.0,55,0.00,FEW,,0.00,571.0,WeatherDisplay:10.37,2013-07-07 21:44:00,
2013-07-07 16:49:00,90.0,71.1,29.76,SSE,153,12.7,12.7,54,0.00,FEW,,0.00,529.0,WeatherDisplay:10.37,2013-07-07 21:49:00,
2013-07-07 16:54:00,89.8,71.5,29.76,SE,142,13.8,13.8,55,0.00,FEW,,0.00,517.0,WeatherDisplay:10.37,2013-07-07 21:54:00,
2013-07-07 17:00:00,89.6,70.8,29.76,SSE,153,13.8,13.8,54,0.00,FEW,,0.00,494.0,WeatherDisplay:10.37,2013-07-07 22:00:00,
2013-07-07 17:05:00,89.8,72.0,29.76,SSE,148,14.0,14.0,56,0.00,FEW,,0.00,483.0,WeatherDisplay:10.37,2013-07-07 22:05:00,
2013-07-07 17:10:00,89.9,70.5,29.76,SSE,167,12.7,12.7,53,0.00,FEW,,0.00,487.0,WeatherDisplay:10.37,2013-07-07 22:10:00,
2013-07-07 17:15:00,90.0,70.6,29.76,SSE,162,16.1,16.1,53,0.00,FEW,,0.00,452.0,WeatherDisplay:10.37,2013-07-07 22:15:00,
2013-07-07 17:20:00,90.1,72.3,29.76,South,178,6.9,6.9,56,0.00,FEW,,0.00,406.0,WeatherDisplay:10.37,2013-07-07 22:20:00,
2013-07-07 17:25:00,90.0,71.1,29.75,SE,143,12.7,12.7,54,0.00,FEW,,0.00,452.0,WeatherDisplay:10.37,2013-07-07 22:25:00,
2013-07-07 17:30:00,89.9,71.0,29.75,SSE,167,11.5,11.5,54,0.00,FEW,,0.00,432.0,WeatherDisplay:10.37,2013-07-07 22:30:00,
2013-07-07 17:35:00,89.9,70.5,29.75,SE,146,11.5,11.5,53,0.00,FEW,,0.00,410.0,WeatherDisplay:10.37,2013-07-07 22:35:00,
2013-07-07 17:40:00,89.8,70.4,29.75,SSE,157,11.5,11.5,53,0.00,FEW,,0.00,413.0,WeatherDisplay:10.37,2013-07-07 22:40:00,
2013-07-07 17:45:00,89.8,70.4,29.75,South,170,15.0,15.0,53,0.00,FEW,,0.00,316.0,WeatherDisplay:10.37,2013-07-07 22:45:00,
2013-07-07 17:50:00,89.7,70.8,29.75,South,170,16.1,16.1,54,0.00,FEW,,0.00,334.0,WeatherDisplay:10.37,2013-07-07 22:50:00,
2013-07-07 17:55:00,89.2,70.4,29.75,South,169,12.7,12.7,54,0.00,SCT,,0.00,162.0,WeatherDisplay:10.37,2013-07-07 22:55:00,
2013-07-07 18:00:00,89.0,70.7,29.75,SSE,151,10.4,10.4,55,0.00,BKN,,0.00,190.0,WeatherDisplay:10.37,2013-07-07 23:00:00,
2013-07-07 18:05:00,88.8,70.5,29.75,SSE,163,11.5,11.5,55,0.00,SCT,,0.00,341.0,WeatherDisplay:10.37,2013-07-07 23:05:00,
2013-07-07 18:10:00,88.9,70.6,29.74,SSE,157,10.4,10.4,55,0.00,SCT,,0.00,162.0,WeatherDisplay:10.37,2013-07-07 23:10:00,
2013-07-07 18:15:00,88.8,70.5,29.74,SSW,198,6.0,6.0,55,0.00,SCT,,0.00,216.0,WeatherDisplay:10.37,2013-07-07 23:15:00,
2013-07-07 18:20:00,88.7,70.5,29.74,SSE,163,11.5,11.5,55,0.00,SCT,,0.00,357.0,WeatherDisplay:10.37,2013-07-07 23:20:00,
2013-07-07 18:25:00,88.7,70.5,29.74,South,173,11.5,11.5,55,0.00,FEW,,0.00,301.0,WeatherDisplay:10.37,2013-07-07 23:25:00,
2013-07-07 18:30:00,88.8,71.1,29.74,South,175,9.2,9.2,56,0.00,CLR,,0.00,281.0,WeatherDisplay:10.37,2013-07-07 23:30:00,
2013-07-07 18:35:00,88.9,71.2,29.74,SSE,155,5.8,5.8,56,0.00,FEW,,0.00,246.0,WeatherDisplay:10.37,2013-07-07 23:35:00,
2013-07-07 18:40:00,88.9,70.6,29.74,South,190,11.5,11.5,55,0.00,FEW,,0.00,255.0,WeatherDisplay:10.37,2013-07-07 23:40:00,
2013-07-07 18:45:00,88.9,70.6,29.74,SSE,151,11.5,11.5,55,0.00,SCT,,0.00,132.0,WeatherDisplay:10.37,2013-07-07 23:45:00,
2013-07-07 18:50:00,88.7,70.5,29.74,SSE,157,11.5,11.5,55,0.00,SCT,,0.00,120.0,WeatherDisplay:10.37,2013-07-07 23:50:00,
2013-07-07 18:55:00,88.5,70.8,29.75,SSE,160,7.0,7.0,56,0.00,BKN,,0.00,97.0,WeatherDisplay:10.37,2013-07-07 23:55:00,
2013-07-07 19:00:00,88.3,70.6,29.75,SSE,156,6.9,6.9,56,0.00,BKN,,0.00,113.0,WeatherDisplay:10.37,2013-07-08 00:00:00,
2013-07-07 19:05:00,88.1,70.9,29.75,SSE,148,5.0,5.0,57,0.00,BKN,,0.00,118.0,WeatherDisplay:10.37,2013-07-08 00:05:00,
2013-07-07 19:10:00,88.0,70.9,29.74,SSE,159,5.8,5.8,57,0.00,SCT,,0.00,153.0,WeatherDisplay:10.37,2013-07-08 00:10:00,
2013-07-07 19:15:00,87.8,70.7,29.74,SSE,147,9.0,9.0,57,0.00,SCT,,0.00,125.0,WeatherDisplay:10.37,2013-07-08 00:15:00,
2013-07-07 19:20:00,87.7,71.1,29.74,SSE,162,10.4,10.4,58,0.00,SCT,,0.00,88.0,WeatherDisplay:10.37,2013-07-08 00:20:00,
2013-07-07 19:25:00,87.4,70.8,29.75,SE,134,10.0,10.0,58,0.00,BKN,,0.00,72.0,WeatherDisplay:10.37,2013-07-08 00:25:00,
2013-07-07 19:30:00,87.2,71.1,29.75,South,173,5.8,5.8,59,0.00,BKN,,0.00,63.0,WeatherDisplay:10.37,2013-07-08 00:30:00,
2013-07-07 19:35:00,87.0,70.9,29.75,SSE,167,4.6,4.6,59,0.00,BKN,,0.00,58.0,WeatherDisplay:10.37,2013-07-08 00:35:00,
2013-07-07 19:40:00,86.8,71.2,29.75,South,173,3.5,3.5,60,0.00,BKN,,0.00,76.0,WeatherDisplay:10.37,2013-07-08 00:40:00,
2013-07-07 19:45:00,86.7,71.2,29.75,SSE,153,3.5,3.5,60,0.00,BKN,,0.00,76.0,WeatherDisplay:10.37,2013-07-08 00:45:00,
2013-07-07 19:50:00,86.5,71.5,29.75,South,184,3.5,3.5,61,0.00,SCT,,0.00,79.0,WeatherDisplay:10.37,2013-07-08 00:50:00,
2013-07-07 19:55:00,86.3,71.3,29.75,SSE,157,5.8,5.8,61,0.00,SCT,,0.00,76.0,WeatherDisplay:10.37,2013-07-08 00:55:00,
2013-07-07 20:00:00,86.2,71.6,29.75,SSE,160,4.6,4.6,62,0.00,SCT,,0.00,62.0,WeatherDisplay:10.37,2013-07-08 01:00:00,
2013-07-07 20:05:00,86.0,71.5,29.75,SSE,159,4.0,4.0,62,0.00,SCT,,0.00,54.0,WeatherDisplay:10.37,2013-07-08 01:05:00,
2013-07-07 20:10:00,85.9,71.8,29.75,South,169,3.5,3.5,63,0.00,SCT,,0.00,44.0,WeatherDisplay:10.37,2013-07-08 01:10:00,
2013-07-07 20:15:00,85.8,71.7,29.75,SSE,165,3.5,3.5,63,0.00,SCT,,0.00,35.0,WeatherDisplay:10.37,2013-07-08 01:15:00,
2013-07-07 20:20:00,85.6,72.0,29.75,SSE,165,2.3,0.0,64,0.00,BKN,,0.00,30.0,WeatherDisplay:10.37,2013-07-08 01:20:00,
2013-07-07 20:25:00,85.5,71.9,29.75,SSE,159,4.6,4.6,64,0.00,BKN,,0.00,25.0,WeatherDisplay:10.37,2013-07-08 01:25:00,
2013-07-07 20:30:00,85.3,72.2,29.75,SSE,159,3.5,3.5,65,0.00,BKN,,0.00,16.0,WeatherDisplay:10.37,2013-07-08 01:30:00,
2013-07-07 20:35:00,85.1,72.0,29.75,SSE,155,2.3,0.0,65,0.00,BKN,,0.00,9.0,WeatherDisplay:10.37,2013-07-08 01:35:00,
2013-07-07 20:40:00,84.9,71.8,29.75,South,179,0.0,0.0,65,0.00,BKN,,0.00,5.0,WeatherDisplay:10.37,2013-07-08 01:40:00,
2013-07-07 20:45:00,84.7,72.1,29.75,South,183,0.0,0.0,66,0.00,,,0.00,0.0,WeatherDisplay:10.37,2013-07-08 01:45:00,
2013-07-07 20:50:00,84.6,72.0,29.75,South,190,1.0,1.3,66,0.00,,,0.00,0.0,WeatherDisplay:10.37,2013-07-08 01:50:00,
2013-07-07 20:55:00,84.5,71.9,29.76,SSE,163,4.6,4.6,66,0.00,,,0.00,0.0,WeatherDisplay:10.37,2013-07-08 01:55:00,
2013-07-07 21:00:00,84.4,71.8,29.76,SSE,165,0.0,0.0,66,0.00,,,0.00,0.0,WeatherDisplay:10.37,2013-07-08 02:00:00,
2013-07-07 21:05:00,84.3,71.7,29.76,SSE,168,1.1,0.0,66,0.00,,,0.00,0.0,WeatherDisplay:10.37,2013-07-08 02:05:00,
2013-07-07 21:10:00,84.1,71.5,29.77,South,173,0.0,0.0,66,0.00,,,0.00,0.0,WeatherDisplay:10.37,2013-07-08 02:10:00,
2013-07-07 21:15:00,84.0,71.4,29.77,South,178,0.0,0.0,66,0.00,,,0.00,0.0,WeatherDisplay:10.37,2013-07-08 02:15:00,
2013-07-07 21:20:00,83.8,71.2,29.77,South,178,1.1,0.0,66,0.00,,,0.00,0.0,WeatherDisplay:10.37,2013-07-08 02:20:00,
2013-07-07 21:25:00,83.7,71.6,29.78,South,175,0.0,0.0,67,0.00,,,0.00,0.0,WeatherDisplay:10.37,2013-07-08 02:25:00,
2013-07-07 21:30:00,83.5,71.4,29.78,SSW,211,0.0,0.0,67,0.00,,,0.00,0.0,WeatherDisplay:10.37,2013-07-08 02:30:00,
2013-07-07 21:35:00,83.4,71.3,29.78,South,188,0.0,0.0,67,0.00,,,0.00,0.0,WeatherDisplay:10.37,2013-07-08 02:35:00,
2013-07-07 21:40:00,83.3,71.2,29.79,South,188,1.1,0.0,67,0.00,,,0.00,0.0,WeatherDisplay:10.37,2013-07-08 02:40:00,
2013-07-07 21:45:00,83.2,71.1,29.79,South,191,0.0,0.0,67,0.00,,,0.00,0.0,WeatherDisplay:10.37,2013-07-08 02:45:00,
2013-07-07 21:50:00,83.0,71.3,29.79,SSE,166,4.6,4.6,68,0.00,,,0.00,0.0,WeatherDisplay:10.37,2013-07-08 02:50:00,
2013-07-07 21:55:00,82.9,71.3,29.79,SSE,166,0.0,0.0,68,0.00,,,0.00,0.0,WeatherDisplay:10.37,2013-07-08 02:55:00,
2013-07-07 22:00:00,82.7,71.1,29.79,SSE,166,1.1,0.0,68,0.00,,,0.00,0.0,WeatherDisplay:10.37,2013-07-08 03:00:00,
2013-07-07 22:06:00,82.5,70.9,29.79,SSE,166,0.0,0.0,68,0.00,,,0.00,0.0,WeatherDisplay:10.37,2013-07-08 03:06:00,
2013-07-07 22:11:00,82.4,70.8,29.79,SSE,166,0.0,0.0,68,0.00,,,0.00,0.0,WeatherDisplay:10.37,2013-07-08 03:11:00,
2013-07-07 22:16:00,82.2,71.0,29.79,SSE,165,4.0,4.0,69,0.00,,,0.00,0.0,WeatherDisplay:10.37,2013-07-08 03:16:00,
2013-07-07 22:21:00,82.1,70.9,29.79,SSE,165,1.1,1.1,69,0.00,,,0.00,0.0,WeatherDisplay:10.37,2013-07-08 03:21:00,
2013-07-07 22:26:00,82.0,71.2,29.79,SSE,164,0.0,0.0,70,0.00,,,0.00,0.0,WeatherDisplay:10.37,2013-07-08 03:26:00,
2013-07-07 22:31:00,81.8,71.9,29.79,SSE,162,4.6,4.6,72,0.00,,,0.00,0.0,WeatherDisplay:10.37,2013-07-08 03:31:00,
2013-07-07 22:36:00,81.6,72.1,29.79,South,169,4.0,4.0,73,0.00,,,0.00,0.0,WeatherDisplay:10.37,2013-07-08 03:36:00,
2013-07-07 22:41:00,81.5,72.0,29.79,SSE,159,5.8,5.8,73,0.00,,,0.00,0.0,WeatherDisplay:10.37,2013-07-08 03:41:00,
2013-07-07 22:46:00,81.3,72.2,29.79,SSE,153,4.6,4.6,74,0.00,,,0.00,0.0,WeatherDisplay:10.37,2013-07-08 03:46:00,
2013-07-07 22:51:00,81.2,72.1,29.79,South,169,5.8,5.8,74,0.00,,,0.00,0.0,WeatherDisplay:10.37,2013-07-08 03:51:00,
2013-07-07 22:56:00,81.1,72.0,29.79,SSE,161,11.5,11.5,74,0.00,,,0.00,0.0,WeatherDisplay:10.37,2013-07-08 03:56:00,
2013-07-07 23:01:00,81.1,72.0,29.79,SSE,165,6.0,6.0,74,0.00,,,0.00,0.0,WeatherDisplay:10.37,2013-07-08 04:01:00,
2013-07-07 23:02:00,81.1,72.0,29.79,SSE,167,5.8,5.8,74,0.00,,,0.00,0.0,WeatherDisplay:10.37,2013-07-08 04:02:00,
2013-07-07 23:07:00,81.1,72.0,29.79,SSE,155,7.0,7.0,74,0.00,,,0.00,0.0,WeatherDisplay:10.37,2013-07-08 04:07:00,
2013-07-07 23:12:00,81.1,72.0,29.79,SSE,165,0.0,0.0,74,0.00,,,0.00,0.0,WeatherDisplay:10.37,2013-07-08 04:12:00,
2013-07-07 23:17:00,81.1,72.0,29.79,South,171,4.6,4.6,74,0.00,,,0.00,0.0,WeatherDisplay:10.37,2013-07-08 04:17:00,
2013-07-07 23:22:00,81.0,72.3,29.79,SSE,152,1.1,1.1,75,0.00,,,0.00,0.0,WeatherDisplay:10.37,2013-07-08 04:22:00,
2013-07-07 23:27:00,80.9,72.2,29.79,SSE,157,1.1,1.1,75,0.00,,,0.00,0.0,WeatherDisplay:10.37,2013-07-08 04:27:00,
2013-07-07 23:32:00,80.8,72.1,29.79,SSE,167,0.0,0.0,75,0.00,,,0.00,0.0,WeatherDisplay:10.37,2013-07-08 04:32:00,
2013-07-07 23:37:00,80.7,72.0,29.79,SSE,168,3.5,3.5,75,0.00,,,0.00,0.0,WeatherDisplay:10.37,2013-07-08 04:37:00,
2013-07-07 23:42:00,80.6,71.9,29.80,SSE,163,4.6,4.6,75,0.00,,,0.00,0.0,WeatherDisplay:10.37,2013-07-08 04:42:00,
2013-07-07 23:47:00,80.5,72.2,29.80,SSE,163,0.0,0.0,76,0.00,,,0.00,0.0,WeatherDisplay:10.37,2013-07-08 04:47:00,
2013-07-07 23:52:00,80.4,72.1,29.80,SSE,163,0.0,0.0,76,0.00,,,0.00,0.0,WeatherDisplay:10.37,2013-07-08 04:52:00,
2013-07-07 23:57:00,80.3,72.0,29.80,SSE,161,0.0,0.0,76,0.00,,,0.00,0.0,WeatherDisplay:10.37,2013-07-08 04:57:00,